Time;durP1;ratioP1;P1;durP2;ratioP2;P2;SDS_P1;SDS_P2;PMS_P1;PMS_P2;Temp;Humidity;BMP_temperature;BMP_pressure;BME280_temperature;BME280_humidity;BME280_pressure;Samples;Min_cycle;Max_cycle;Signal;HPM_P1;HPM_P2
2022/04/08 00:00:27;;;;;;;8.27;1.25;;;;;;;6.38;67.97;95086.03;2063190;28;20222;-63
2022/04/08 00:01:29;;;;;;;32.28;2.20;;;;;;;6.39;67.63;95089.47;2069270;28;20256;-63
2022/04/08 00:02:31;;;;;;;14.40;2.53;;;;;;;6.38;67.52;95091.25;2068726;28;20632;-63
2022/04/08 00:03:32;;;;;;;8.40;1.58;;;;;;;6.43;66.38;95094.31;2068624;28;20288;-63
2022/04/08 00:04:34;;;;;;;16.75;1.73;;;;;;;6.34;66.38;95084.63;2068708;28;20195;-63
2022/04/08 00:05:35;;;;;;;6.38;1.15;;;;;;;6.45;65.91;95095.03;2070778;28;20243;-63
2022/04/08 00:06:37;;;;;;;7.28;1.23;;;;;;;6.46;65.07;95093.25;2071099;28;20280;-63
2022/04/08 00:07:40;;;;;;;7.28;1.33;;;;;;;6.45;65.55;95102.84;2069131;28;20624;-63
2022/04/08 00:08:41;;;;;;;8.10;1.30;;;;;;;6.47;66.12;95103.56;2067830;28;20204;-63
2022/04/08 00:09:42;;;;;;;12.00;1.50;;;;;;;6.43;67.02;95094.31;2070010;28;20637;-63
2022/04/08 00:10:44;;;;;;;6.45;1.30;;;;;;;6.43;66.54;95096.94;2069369;28;20229;-63
2022/04/08 00:11:46;;;;;;;12.50;2.05;;;;;;;6.40;67.23;95102.34;2069567;28;20723;-63
2022/04/08 00:12:48;;;;;;;9.45;1.20;;;;;;;6.30;66.51;95089.22;2069077;28;20201;-63
2022/04/08 00:13:52;;;;;;;5.78;1.70;;;;;;;6.38;66.50;95100.81;2067901;28;20695;-63
2022/04/08 00:14:53;;;;;;;12.50;2.17;;;;;;;6.42;66.25;95113.47;2067945;28;20300;-62
2022/04/08 00:15:55;;;;;;;15.35;1.65;;;;;;;6.40;66.64;95115.34;2069653;28;20201;-63
2022/04/08 00:16:56;;;;;;;6.85;1.20;;;;;;;6.40;66.96;95115.34;2068408;28;20190;-62
2022/04/08 00:17:58;;;;;;;9.25;1.45;;;;;;;6.39;65.78;95111.09;2065865;28;20296;-62
2022/04/08 00:19:00;;;;;;;8.05;1.38;;;;;;;6.41;65.52;95109.22;2068600;28;20649;-63
2022/04/08 00:20:02;;;;;;;6.07;1.65;;;;;;;6.40;65.76;95110.16;2067055;28;20194;-63
2022/04/08 00:21:04;;;;;;;9.32;1.80;;;;;;;6.36;65.45;95107.91;2068239;28;20209;-63
2022/04/08 00:22:06;;;;;;;8.40;1.42;;;;;;;6.33;65.66;95098.53;2068497;28;20206;-63
2022/04/08 00:23:07;;;;;;;7.18;1.73;;;;;;;6.34;65.68;95105.41;2068118;28;20681;-63
2022/04/08 00:24:09;;;;;;;8.77;1.88;;;;;;;6.38;65.64;95091.25;2068121;28;20590;-63
2022/04/08 00:25:14;;;;;;;5.35;1.13;;;;;;;6.41;65.96;95104.03;2067656;28;20802;-63
2022/04/08 00:26:16;;;;;;;8.80;1.40;;;;;;;6.35;65.85;95096.69;2068427;28;20224;-63
2022/04/08 00:27:17;;;;;;;11.23;2.70;;;;;;;6.39;66.38;95105.06;2067622;28;20908;-63
2022/04/08 00:28:19;;;;;;;4.65;1.00;;;;;;;6.34;66.48;95111.44;2066779;28;20198;-63
2022/04/08 00:29:20;;;;;;;10.68;1.70;;;;;;;6.24;66.35;95083.66;2067993;28;20210;-63
2022/04/08 00:30:22;;;;;;;19.33;2.95;;;;;;;6.34;66.41;95082.00;2079052;28;20267;-63
2022/04/08 00:31:23;;;;;;;4.75;1.52;;;;;;;6.43;65.67;95117.72;2079400;28;20665;-63
2022/04/08 00:32:26;;;;;;;6.47;1.13;;;;;;;6.45;65.62;95105.44;2070927;28;20201;-63
2022/04/08 00:33:31;;;;;;;7.03;1.40;;;;;;;6.33;66.09;95094.19;2068961;28;20665;-63
2022/04/08 00:34:33;;;;;;;12.90;1.80;;;;;;;6.38;66.01;95106.03;2068172;28;20204;-63
2022/04/08 00:35:34;;;;;;;7.38;1.20;;;;;;;6.36;66.40;95107.91;2067066;28;20221;-63
2022/04/08 00:36:36;;;;;;;6.88;2.15;;;;;;;6.38;65.65;95106.03;2066461;28;20224;-63
2022/04/08 00:37:39;;;;;;;6.90;1.23;;;;;;;6.41;66.01;95110.97;2067156;28;20206;-63
2022/04/08 00:38:41;;;;;;;9.30;1.23;;;;;;;6.39;65.71;95111.09;2067639;28;20206;-63
2022/04/08 00:39:42;;;;;;;5.97;1.33;;;;;;;6.26;65.38;95085.19;2069691;28;20205;-63
2022/04/08 00:40:44;;;;;;;6.10;1.48;;;;;;;6.43;65.34;95114.28;2070074;28;20213;-63
2022/04/08 00:41:45;;;;;;;7.38;1.15;;;;;;;6.30;65.50;95094.41;2069787;28;20198;-63
2022/04/08 00:42:47;;;;;;;10.98;1.25;;;;;;;6.36;66.09;95108.72;2068186;28;20206;-64
2022/04/08 00:43:49;;;;;;;8.77;1.30;;;;;;;6.42;65.84;95110.84;2069693;28;20694;-62
2022/04/08 00:44:50;;;;;;;6.85;1.27;;;;;;;6.40;66.28;95112.75;2068915;28;20684;-62
2022/04/08 00:45:52;;;;;;;7.15;1.55;;;;;;;6.34;67.12;95111.44;2065791;28;20720;-63
2022/04/08 00:46:53;;;;;;;9.18;1.40;;;;;;;6.37;66.68;95120.81;2067472;28;20657;-63
2022/04/08 00:47:54;;;;;;;5.78;1.50;;;;;;;6.31;66.80;95114.28;2068195;28;20206;-63
2022/04/08 00:48:56;;;;;;;6.03;1.33;;;;;;;6.32;67.33;95113.31;2068769;28;20849;-63
2022/04/08 00:49:58;;;;;;;7.10;1.45;;;;;;;6.31;67.34;95131.63;2068339;28;20872;-63
2022/04/08 00:51:00;;;;;;;11.75;2.22;;;;;;;6.14;67.28;95089.53;2069543;28;20201;-64
2022/04/08 00:52:03;;;;;;;5.82;1.20;;;;;;;6.30;67.43;95124.78;2068506;28;20212;-63
2022/04/08 00:53:06;;;;;;;6.63;1.33;;;;;;;6.31;67.48;95140.28;2068919;28;20202;-63
2022/04/08 00:54:08;;;;;;;7.82;1.50;;;;;;;6.28;67.35;95126.69;2068000;28;20217;-63
2022/04/08 00:55:10;;;;;;;4.95;1.15;;;;;;;6.25;67.46;95137.31;2067536;28;20220;-63
2022/04/08 00:56:12;;;;;;;5.55;1.38;;;;;;;6.20;67.34;95126.44;2070966;28;20758;-63
2022/04/08 00:57:13;;;;;;;4.60;1.30;;;;;;;6.23;67.38;95127.00;2071239;28;20286;-63
2022/04/08 00:58:15;;;;;;;5.55;1.27;;;;;;;6.22;67.36;95130.56;2069946;28;20205;-63
2022/04/08 00:59:17;;;;;;;14.48;1.38;;;;;;;6.26;65.93;95132.00;2066862;28;20199;-63
2022/04/08 01:00:22;;;;;;;4.03;1.23;;;;;;;6.08;65.47;95097.81;2067257;28;20230;-63
2022/04/08 01:01:24;;;;;;;8.68;1.73;;;;;;;6.26;66.18;95136.38;2069189;28;20197;-63
2022/04/08 01:02:28;;;;;;;5.93;1.10;;;;;;;6.22;66.44;95142.75;2068209;28;20280;-63
2022/04/08 01:03:29;;;;;;;6.82;1.88;;;;;;;6.22;66.39;95140.16;2069424;28;20206;-63
2022/04/08 01:04:31;;;;;;;5.22;1.27;;;;;;;6.27;64.83;95119.81;2070222;28;20649;-62
2022/04/08 01:05:33;;;;;;;4.63;1.30;;;;;;;6.25;65.08;95134.69;2069114;28;20213;-63
2022/04/08 01:06:35;;;;;;;18.92;1.73;;;;;;;6.27;65.49;95145.81;2068172;28;20237;-63
2022/04/08 01:07:36;;;;;;;13.57;1.55;;;;;;;6.18;66.13;95141.31;2069187;28;20759;-63
2022/04/08 01:08:39;;;;;;;5.57;1.33;;;;;;;6.18;66.67;95136.13;2067995;28;20210;-64
2022/04/08 01:09:41;;;;;;;8.30;1.55;;;;;;;6.18;65.81;95146.53;2067733;28;20592;-62
2022/04/08 01:10:44;;;;;;;9.15;1.50;;;;;;;6.16;65.94;95133.63;2067764;28;20221;-63
2022/04/08 01:11:45;;;;;;;47.08;2.50;;;;;;;5.97;65.66;95097.78;2068170;28;20245;-63
2022/04/08 01:12:49;;;;;;;8.90;1.38;;;;;;;6.13;65.66;95149.44;2069433;28;20197;-63
2022/04/08 01:13:51;;;;;;;6.03;1.05;;;;;;;6.05;65.48;95134.41;2069209;28;20198;-63
2022/04/08 01:14:58;;;;;;;4.75;1.20;;;;;;;6.05;65.96;95144.81;2067673;28;20210;-62
2022/04/08 01:15:59;;;;;;;9.18;1.85;;;;;;;6.04;65.96;95129.34;2070781;28;20272;-63
2022/04/08 01:17:00;;;;;;;7.55;1.58;;;;;;;6.12;65.30;95155.59;2071236;28;20231;-63
2022/04/08 01:18:05;;;;;;;4.80;1.35;;;;;;;5.96;65.70;95123.88;2066733;28;20206;-63
2022/04/08 01:19:07;;;;;;;12.88;1.73;;;;;;;6.11;66.21;95154.75;2067913;28;20198;-63
2022/04/08 01:20:09;;;;;;;9.57;1.25;;;;;;;5.94;66.07;95134.38;2067117;28;20205;-63
2022/04/08 01:21:10;;;;;;;6.75;1.23;;;;;;;6.04;66.34;95148.38;2066310;28;20564;-64
2022/04/08 01:22:12;;;;;;;10.55;1.40;;;;;;;6.12;66.01;95146.03;2066625;28;20684;-63
2022/04/08 01:23:17;;;;;;;6.57;1.08;;;;;;;6.12;66.25;95151.22;2067404;28;20198;-63
2022/04/08 01:24:21;;;;;;;4.35;1.20;;;;;;;6.11;66.17;95154.75;2068812;28;20533;-63
2022/04/08 01:25:23;;;;;;;13.77;1.85;;;;;;;6.10;66.98;95150.50;2070157;28;20222;-63
2022/04/08 01:26:25;;;;;;;11.95;2.00;;;;;;;6.05;67.62;95149.19;2065812;28;20205;-63
2022/04/08 01:27:28;;;;;;;6.80;1.30;;;;;;;6.06;67.39;95145.66;2073360;28;20214;-63
2022/04/08 01:28:29;;;;;;;6.03;1.20;;;;;;;6.03;67.91;95159.69;2067612;28;20812;-64
2022/04/08 01:29:30;;;;;;;6.80;1.30;;;;;;;5.90;68.06;95136.34;2070242;28;20201;-63
2022/04/08 01:30:32;;;;;;;12.60;1.75;;;;;;;5.90;68.38;95145.91;2063422;28;20222;-63
2022/04/08 01:31:34;;;;;;;16.17;2.80;;;;;;;6.01;68.16;95160.75;2068075;28;20261;-63
2022/04/08 01:32:35;;;;;;;5.85;1.35;;;;;;;5.96;68.13;95153.28;2069362;28;20197;-63
2022/04/08 01:33:37;;;;;;;5.55;1.30;;;;;;;6.01;68.16;95166.75;2071130;28;20193;-63
2022/04/08 01:34:39;;;;;;;10.70;1.45;;;;;;;6.04;68.54;95171.75;2069752;28;20301;-63
2022/04/08 01:35:40;;;;;;;6.30;1.23;;;;;;;6.01;68.44;95166.75;2068100;28;20374;-63
2022/04/08 01:36:41;;;;;;;10.10;1.85;;;;;;;5.99;68.35;95166.06;2068190;28;20201;-63
2022/04/08 01:37:43;;;;;;;11.35;1.20;;;;;;;5.93;68.11;95156.06;2068145;28;20190;-63
2022/04/08 01:38:45;;;;;;;6.80;2.15;;;;;;;5.93;67.72;95156.06;2067602;28;20201;-63
2022/04/08 01:39:46;;;;;;;8.70;1.33;;;;;;;5.95;67.15;95159.41;2068793;28;20201;-63
2022/04/08 01:40:47;;;;;;;7.75;1.50;;;;;;;6.02;67.38;95167.59;2066105;28;20225;-63
2022/04/08 01:41:49;;;;;;;9.40;1.10;;;;;;;6.00;67.76;95175.53;2066811;28;20205;-63
2022/04/08 01:42:51;;;;;;;4.65;1.35;;;;;;;6.02;67.47;95175.38;2069676;28;20213;-63
2022/04/08 01:43:52;;;;;;;10.00;1.50;;;;;;;5.99;68.28;95162.63;2066895;28;20578;-63
2022/04/08 01:44:57;;;;;;;6.47;1.10;;;;;;;6.00;67.82;95169.47;2065625;28;20190;-63
2022/04/08 01:45:58;;;;;;;7.60;1.58;;;;;;;5.95;68.21;95167.22;2066040;28;20202;-63
2022/04/08 01:47:00;;;;;;;4.10;1.10;;;;;;;5.93;68.49;95169.06;2066336;28;20209;-63
2022/04/08 01:48:04;;;;;;;8.73;1.42;;;;;;;5.91;68.80;95171.78;2067517;28;20206;-63
2022/04/08 01:49:06;;;;;;;6.35;1.50;;;;;;;5.95;68.18;95167.22;2068130;28;20205;-63
2022/04/08 01:50:07;;;;;;;12.65;1.38;;;;;;;5.90;68.68;95161.47;2069065;28;20209;-63
2022/04/08 01:51:09;;;;;;;8.75;1.30;;;;;;;5.77;68.01;95142.56;2070872;28;20715;-62
2022/04/08 01:52:10;;;;;;;7.65;1.50;;;;;;;5.95;67.80;95172.41;2071066;28;20426;-63
2022/04/08 01:53:13;;;;;;;14.20;1.45;;;;;;;5.88;68.23;95171.16;2070858;28;20206;-63
2022/04/08 01:54:15;;;;;;;18.05;2.00;;;;;;;5.91;68.50;95176.16;2070542;28;20209;-63
2022/04/08 01:55:16;;;;;;;5.07;1.30;;;;;;;5.89;68.13;95178.03;2067797;28;20230;-63
2022/04/08 01:56:18;;;;;;;8.00;1.50;;;;;;;5.88;68.44;95185.00;2068829;28;20638;-63
2022/04/08 01:57:23;;;;;;;6.72;1.77;;;;;;;5.92;67.72;95165.66;2070239;28;20197;-63
2022/04/08 01:58:24;;;;;;;4.75;1.35;;;;;;;5.94;67.93;95192.34;2068755;28;20744;-63
2022/04/08 01:59:26;;;;;;;5.28;1.35;;;;;;;5.93;67.47;95182.06;2068529;28;20556;-63
2022/04/08 02:00:30;;;;;;;6.78;1.65;;;;;;;5.80;67.73;95181.28;2070405;28;20283;-63
2022/04/08 02:01:31;;;;;;;9.38;1.50;;;;;;;5.86;68.60;95188.63;2071674;28;20202;-63
2022/04/08 02:02:33;;;;;;;4.78;1.50;;;;;;;5.82;68.49;95189.78;2071756;28;20286;-63
2022/04/08 02:03:34;;;;;;;7.05;1.55;;;;;;;5.85;68.35;95193.00;2069564;28;20311;-64
2022/04/08 02:04:36;;;;;;;9.30;1.60;;;;;;;5.75;68.51;95176.44;2069464;28;20202;-63
2022/04/08 02:05:37;;;;;;;5.72;1.20;;;;;;;5.74;68.50;95175.63;2070031;28;20587;-63
2022/04/08 02:06:40;;;;;;;9.00;1.30;;;;;;;5.78;67.78;95172.78;2068524;28;20228;-63
2022/04/08 02:07:42;;;;;;;1.77;0.90;;;;;;;5.72;67.59;95161.91;2069935;28;20213;-63
2022/04/08 02:08:43;;;;;;;8.52;1.33;;;;;;;5.78;67.44;95173.59;2070643;28;20210;-63
2022/04/08 02:09:45;;;;;;;4.50;1.70;;;;;;;5.77;68.18;95173.72;2071128;28;20221;-63
2022/04/08 02:10:46;;;;;;;4.55;1.10;;;;;;;5.67;67.89;95163.19;2071602;28;20213;-63
2022/04/08 02:11:48;;;;;;;7.80;1.20;;;;;;;5.69;68.14;95179.47;2068917;28;20209;-63
2022/04/08 02:12:50;;;;;;;10.73;1.80;;;;;;;5.62;68.80;95173.88;2071181;28;20198;-63
2022/04/08 02:13:51;;;;;;;12.23;1.50;;;;;;;5.61;69.05;95185.22;2070462;28;20712;-63
2022/04/08 02:14:54;;;;;;;10.35;1.50;;;;;;;5.51;69.20;95171.25;2068459;28;20623;-62
2022/04/08 02:15:55;;;;;;;9.38;1.60;;;;;;;5.59;69.15;95176.72;2067862;28;20716;-63
2022/04/08 02:16:57;;;;;;;6.63;1.05;;;;;;;5.54;69.38;95169.22;2068452;28;20252;-63
2022/04/08 02:17:58;;;;;;;11.77;2.80;;;;;;;5.54;69.46;95177.00;2070145;28;20195;-63
2022/04/08 02:18:59;;;;;;;6.38;1.00;;;;;;;5.52;69.75;95176.31;2069424;28;20563;-62
2022/04/08 02:20:01;;;;;;;9.88;1.35;;;;;;;5.51;70.18;95177.25;2070088;28;20201;-63
2022/04/08 02:21:03;;;;;;;4.72;1.58;;;;;;;5.49;70.48;95175.72;2070976;28;20198;-63
2022/04/08 02:22:05;;;;;;;5.30;1.30;;;;;;;5.34;70.59;95162.84;2070632;28;20592;-63
2022/04/08 02:23:08;;;;;;;9.13;1.13;;;;;;;5.42;71.07;95170.09;2069214;28;20209;-63
2022/04/08 02:24:10;;;;;;;7.65;1.70;;;;;;;5.41;71.08;95180.59;2069959;28;20233;-62
2022/04/08 02:25:11;;;;;;;6.97;1.58;;;;;;;5.43;71.31;95183.91;2075345;28;20201;-62
2022/04/08 02:26:14;;;;;;;8.27;1.70;;;;;;;5.29;71.63;95167.56;2076934;28;20197;-63
2022/04/08 02:27:16;;;;;;;6.20;1.35;;;;;;;5.36;71.60;95178.34;2067664;28;20206;-63
2022/04/08 02:28:18;;;;;;;11.38;1.55;;;;;;;5.34;71.80;95172.41;2067418;28;20206;-63
2022/04/08 02:29:20;;;;;;;3.97;1.05;;;;;;;5.41;71.40;95183.19;2069616;28;20194;-63
2022/04/08 02:30:22;;;;;;;4.70;1.23;;;;;;;5.44;71.95;95185.59;2070833;28;20216;-63
2022/04/08 02:31:23;;;;;;;7.13;1.40;;;;;;;5.41;71.99;95188.38;2067405;28;20209;-63
2022/04/08 02:32:25;;;;;;;6.93;1.33;;;;;;;5.38;71.97;95188.63;2068787;28;20194;-63
2022/04/08 02:33:27;;;;;;;6.60;1.67;;;;;;;5.43;71.93;95186.50;2066973;28;20228;-63
2022/04/08 02:34:28;;;;;;;7.93;1.77;;;;;;;5.38;72.35;95193.81;2069309;28;20190;-63
2022/04/08 02:35:31;;;;;;;18.08;1.75;;;;;;;5.32;72.31;95182.91;2066765;28;20797;-63
2022/04/08 02:36:32;;;;;;;7.22;1.35;;;;;;;5.34;72.70;95194.00;2068284;28;20648;-63
2022/04/08 02:37:33;;;;;;;10.27;1.75;;;;;;;5.29;72.50;95185.75;2069903;28;20204;-63
2022/04/08 02:38:35;;;;;;;6.43;1.55;;;;;;;5.29;73.13;95197.88;2068037;28;20561;-63
2022/04/08 02:39:36;;;;;;;5.97;1.40;;;;;;;5.29;72.81;95187.47;2068973;28;20709;-63
2022/04/08 02:40:38;;;;;;;7.85;1.25;;;;;;;5.27;72.93;95187.63;2068667;28;20460;-63
2022/04/08 02:41:39;;;;;;;6.90;1.80;;;;;;;5.30;72.58;95194.34;2067252;28;20203;-63
2022/04/08 02:42:41;;;;;;;6.43;1.35;;;;;;;5.26;73.04;95198.91;2072025;28;20209;-63
2022/04/08 02:43:42;;;;;;;8.25;1.50;;;;;;;5.17;72.58;95180.56;2071490;28;20206;-63
2022/04/08 02:44:44;;;;;;;8.05;1.80;;;;;;;5.29;71.79;95190.06;2069998;28;20211;-63
2022/04/08 02:45:46;;;;;;;9.55;1.92;;;;;;;5.32;72.01;95195.88;2069971;28;20217;-63
2022/04/08 02:46:51;;;;;;;12.40;3.00;;;;;;;5.34;72.09;95211.38;2070142;28;20198;-63
2022/04/08 02:47:53;;;;;;;14.65;2.50;;;;;;;5.19;72.17;95186.47;2068873;28;20838;-63
2022/04/08 02:48:55;;;;;;;7.85;1.73;;;;;;;5.29;71.68;95198.72;2068308;28;20203;-63
2022/04/08 02:49:56;;;;;;;11.38;1.65;;;;;;;5.34;71.86;95209.59;2068934;28;20201;-63
2022/04/08 02:50:58;;;;;;;9.30;1.30;;;;;;;5.33;72.02;95213.13;2069286;28;20199;-63
2022/04/08 02:51:59;;;;;;;8.60;1.48;;;;;;;5.39;71.74;95217.06;2068036;28;20233;-63
2022/04/08 02:53:01;;;;;;;12.05;1.42;;;;;;;5.27;71.42;95203.19;2069084;28;20209;-63
2022/04/08 02:54:02;;;;;;;6.10;1.40;;;;;;;5.26;71.70;95209.31;2069004;28;20202;-62
2022/04/08 02:55:05;;;;;;;7.18;1.52;;;;;;;5.41;70.51;95211.75;2069325;28;20198;-63
2022/04/08 02:56:06;;;;;;;5.20;1.55;;;;;;;5.38;70.76;95209.38;2070384;28;20591;-63
2022/04/08 02:57:08;;;;;;;13.10;1.52;;;;;;;5.33;71.28;95209.69;2067828;28;20800;-63
2022/04/08 02:58:09;;;;;;;7.38;1.80;;;;;;;5.34;70.71;95204.41;2069218;28;20198;-62
2022/04/08 02:59:11;;;;;;;8.02;1.33;;;;;;;5.40;70.47;95212.72;2067798;28;20208;-63
2022/04/08 03:00:17;;;;;;;4.75;1.40;;;;;;;5.41;70.37;95211.75;2075180;28;20226;-63
2022/04/08 03:01:19;;;;;;;9.77;1.67;;;;;;;5.35;70.59;95210.41;2074734;28;20201;-63
2022/04/08 03:02:20;;;;;;;4.78;1.13;;;;;;;5.38;69.82;95215.41;2069741;28;20264;-63
2022/04/08 03:03:24;;;;;;;4.70;1.35;;;;;;;5.41;69.11;95216.94;2069304;28;20537;-63
2022/04/08 03:04:26;;;;;;;11.27;2.05;;;;;;;5.44;69.21;95227.13;2069160;28;20202;-63
2022/04/08 03:05:27;;;;;;;8.43;1.60;;;;;;;5.42;68.92;95206.47;2068267;28;20218;-62
2022/04/08 03:06:28;;;;;;;9.00;1.27;;;;;;;5.45;69.59;95226.19;2069390;28;20254;-62
2022/04/08 03:07:30;;;;;;;6.53;1.42;;;;;;;5.44;69.84;95224.53;2069850;28;20237;-63
2022/04/08 03:08:31;;;;;;;9.00;1.50;;;;;;;5.31;70.08;95222.81;2068984;28;20423;-63
2022/04/08 03:09:33;;;;;;;10.30;1.48;;;;;;;5.32;70.22;95221.84;2068453;28;20213;-63
2022/04/08 03:10:34;;;;;;;12.45;2.25;;;;;;;5.28;70.78;95222.19;2068340;28;20221;-63
2022/04/08 03:11:36;;;;;;;5.88;1.55;;;;;;;5.28;70.03;95225.59;2068298;28;20549;-63
2022/04/08 03:12:37;;;;;;;16.02;1.13;;;;;;;5.23;70.03;95225.06;2067926;28;20198;-63
2022/04/08 03:13:39;;;;;;;8.10;1.45;;;;;;;5.25;69.78;95227.56;2071181;28;20251;-63
2022/04/08 03:14:40;;;;;;;4.63;1.30;;;;;;;5.23;70.30;95226.84;2071029;28;20197;-63
2022/04/08 03:15:42;;;;;;;6.05;1.55;;;;;;;5.21;69.93;95237.34;2069443;28;20367;-62
2022/04/08 03:16:43;;;;;;;5.72;1.80;;;;;;;5.15;70.51;95235.16;2068985;28;20211;-63
2022/04/08 03:17:46;;;;;;;7.82;1.77;;;;;;;5.23;70.40;95253.63;2069307;28;20193;-63
2022/04/08 03:18:47;;;;;;;5.82;1.05;;;;;;;5.19;69.67;95244.41;2068552;28;20203;-63
2022/04/08 03:19:49;;;;;;;8.98;1.80;;;;;;;5.21;70.05;95250.31;2068464;28;20209;-63
2022/04/08 03:20:51;;;;;;;8.18;1.83;;;;;;;5.17;69.88;95242.84;2069742;28;20228;-63
2022/04/08 03:21:52;;;;;;;4.82;1.00;;;;;;;5.10;70.77;95245.03;2069151;28;20213;-63
2022/04/08 03:22:53;;;;;;;7.68;1.20;;;;;;;5.14;69.41;95244.72;2067241;28;20213;-63
2022/04/08 03:23:55;;;;;;;5.30;1.30;;;;;;;5.14;69.00;95243.91;2068787;28;20198;-63
2022/04/08 03:24:56;;;;;;;6.65;1.38;;;;;;;4.46;69.56;95152.50;2069445;28;21112;-63
2022/04/08 03:25:58;;;;;;;9.90;1.38;;;;;;;5.04;69.25;95235.09;2069703;28;20200;-63
2022/04/08 03:26:59;;;;;;;5.70;1.20;;;;;;;5.20;68.00;95253.03;2077736;28;20263;-63
2022/04/08 03:28:01;;;;;;;9.30;1.70;;;;;;;5.22;67.20;95259.78;2077012;28;20197;-63
2022/04/08 03:29:03;;;;;;;11.05;1.67;;;;;;;5.12;66.64;95243.19;2068083;28;20202;-63
2022/04/08 03:30:05;;;;;;;8.27;1.35;;;;;;;5.23;67.32;95261.41;2068790;28;20198;-63
2022/04/08 03:31:06;;;;;;;4.78;1.23;;;;;;;5.22;66.61;95269.34;2068562;28;20250;-63
2022/04/08 03:32:09;;;;;;;6.55;1.40;;;;;;;5.25;65.25;95262.16;2070862;28;20672;-63
2022/04/08 03:33:10;;;;;;;6.15;1.23;;;;;;;5.31;65.13;95260.88;2071709;28;20224;-63
2022/04/08 03:34:12;;;;;;;12.43;1.90;;;;;;;5.22;64.97;95248.56;2067266;28;20194;-63
2022/04/08 03:35:13;;;;;;;5.68;1.02;;;;;;;5.24;65.56;95252.72;2068178;28;20221;-63
2022/04/08 03:36:15;;;;;;;7.07;1.35;;;;;;;5.24;65.96;95259.66;2069953;28;20267;-63
2022/04/08 03:37:18;;;;;;;9.65;2.05;;;;;;;5.24;66.00;95254.47;2069516;28;20201;-63
2022/04/08 03:38:19;;;;;;;8.95;1.23;;;;;;;5.20;64.87;95247.84;2069169;28;20231;-63
2022/04/08 03:39:22;;;;;;;9.65;2.13;;;;;;;5.06;64.76;95231.44;2069031;28;20201;-63
2022/04/08 03:40:24;;;;;;;10.60;1.63;;;;;;;5.24;65.14;95251.88;2068506;28;20226;-63
2022/04/08 03:41:25;;;;;;;7.15;1.42;;;;;;;5.23;64.82;95258.00;2066458;28;20195;-63
2022/04/08 03:42:27;;;;;;;8.18;1.42;;;;;;;5.23;65.24;95248.44;2066357;28;20365;-63
2022/04/08 03:43:28;;;;;;;5.63;1.25;;;;;;;5.20;65.00;95247.84;2068761;28;20209;-64
2022/04/08 03:44:30;;;;;;;12.00;1.40;;;;;;;5.20;65.43;95259.03;2066541;28;20201;-64
2022/04/08 03:45:31;;;;;;;16.35;1.75;;;;;;;5.20;65.51;95261.63;2066876;28;20217;-63
2022/04/08 03:46:33;;;;;;;13.75;1.42;;;;;;;5.16;64.95;95252.41;2067711;28;20205;-63
2022/04/08 03:47:34;;;;;;;6.18;1.30;;;;;;;5.19;64.94;95256.56;2068544;28;20549;-63
2022/04/08 03:48:37;;;;;;;13.15;2.58;;;;;;;5.16;65.15;95262.78;2069529;28;20564;-63
2022/04/08 03:49:39;;;;;;;7.18;1.45;;;;;;;5.16;65.73;95265.38;2070099;28;20197;-63
2022/04/08 03:50:40;;;;;;;19.38;1.55;;;;;;;5.10;65.70;95273.59;2066805;28;20233;-63
2022/04/08 03:51:43;;;;;;;4.57;1.48;;;;;;;5.15;65.46;95272.34;2068993;28;20698;-63
2022/04/08 03:52:50;;;;;;;6.35;1.60;;;;;;;5.14;65.50;95265.47;2069663;28;20202;-63
2022/04/08 03:53:51;;;;;;;7.95;1.55;;;;;;;5.13;65.42;95275.97;2067846;28;20198;-63
2022/04/08 03:54:55;;;;;;;7.70;1.50;;;;;;;5.06;65.69;95272.16;2066673;28;20201;-63
2022/04/08 03:55:56;;;;;;;18.88;1.20;;;;;;;5.13;65.66;95284.56;2069234;28;20214;-63
2022/04/08 03:56:58;;;;;;;4.72;1.40;;;;;;;4.90;65.90;95249.81;2068338;28;20206;-62
2022/04/08 03:57:59;;;;;;;7.60;1.88;;;;;;;5.11;65.84;95285.63;2069242;28;20232;-63
2022/04/08 03:59:00;;;;;;;7.28;1.80;;;;;;;5.11;65.68;95291.63;2065287;28;20236;-63
2022/04/08 04:00:03;;;;;;;7.90;1.58;;;;;;;5.10;65.76;95274.41;2070380;28;20208;-62
2022/04/08 04:01:04;;;;;;;11.60;1.90;;;;;;;5.13;65.79;95275.97;2071678;28;20715;-63
2022/04/08 04:02:07;;;;;;;10.82;1.30;;;;;;;5.17;65.88;95285.19;2066657;28;20246;-63
2022/04/08 04:03:09;;;;;;;14.70;2.03;;;;;;;5.12;66.05;95282.94;2069390;28;20205;-63
2022/04/08 04:04:16;;;;;;;10.98;1.42;;;;;;;5.05;66.45;95278.25;2067550;28;20193;-63
2022/04/08 04:05:17;;;;;;;7.78;1.30;;;;;;;5.11;66.64;95277.84;2068006;28;20597;-63
2022/04/08 04:06:18;;;;;;;13.15;1.80;;;;;;;5.06;66.68;95278.16;2068550;28;20210;-63
2022/04/08 04:07:20;;;;;;;5.35;1.80;;;;;;;5.12;67.07;95293.31;2067213;28;20198;-63
2022/04/08 04:08:22;;;;;;;9.95;1.25;;;;;;;5.13;67.35;95289.75;2068242;28;20195;-63
2022/04/08 04:09:23;;;;;;;6.15;1.35;;;;;;;5.11;67.23;95285.63;2068189;28;20202;-63
2022/04/08 04:10:25;;;;;;;12.60;2.65;;;;;;;5.10;67.34;95283.97;2069425;28;20225;-63
2022/04/08 04:11:26;;;;;;;21.05;2.03;;;;;;;5.07;67.74;95281.56;2067765;28;20194;-63
2022/04/08 04:12:28;;;;;;;11.57;1.40;;;;;;;5.01;67.63;95269.84;2067158;28;20200;-63
2022/04/08 04:13:29;;;;;;;9.73;1.50;;;;;;;5.09;67.67;95293.50;2066046;28;20206;-63
2022/04/08 04:14:31;;;;;;;6.05;1.08;;;;;;;5.04;67.69;95285.22;2068139;28;20587;-63
2022/04/08 04:15:32;;;;;;;9.02;1.52;;;;;;;5.06;67.86;95285.13;2068359;28;20717;-63
2022/04/08 04:16:34;;;;;;;9.55;1.50;;;;;;;5.07;67.80;95289.34;2076983;28;20578;-63
2022/04/08 04:17:36;;;;;;;8.40;1.80;;;;;;;5.01;68.24;95282.00;2076985;28;20197;-63
2022/04/08 04:18:41;;;;;;;12.50;2.35;;;;;;;5.06;68.22;95279.94;2068868;28;20233;-63
2022/04/08 04:19:43;;;;;;;12.25;1.50;;;;;;;5.09;67.44;95284.91;2068307;28;20211;-63
2022/04/08 04:20:44;;;;;;;10.00;1.90;;;;;;;5.11;68.02;95286.44;2068479;28;20217;-63
2022/04/08 04:21:47;;;;;;;12.32;1.73;;;;;;;5.10;68.35;95290.00;2067186;28;20194;-63
2022/04/08 04:22:50;;;;;;;9.00;1.55;;;;;;;4.93;68.72;95259.16;2069039;28;20193;-63
2022/04/08 04:23:52;;;;;;;9.25;1.52;;;;;;;5.04;68.90;95293.00;2069896;28;20194;-63
2022/04/08 04:24:58;;;;;;;13.02;1.90;;;;;;;5.05;68.36;95279.06;2068981;28;20198;-63
2022/04/08 04:26:00;;;;;;;11.98;1.50;;;;;;;5.11;67.74;95272.66;2068233;28;20204;-63
2022/04/08 04:27:02;;;;;;;13.63;1.40;;;;;;;5.11;67.88;95280.44;2076913;28;20249;-63
2022/04/08 04:28:04;;;;;;;8.93;1.80;;;;;;;5.10;68.20;95271.81;2075972;28;20320;-64
2022/04/08 04:29:06;;;;;;;13.40;1.98;;;;;;;5.11;68.19;95276.06;2065590;28;20743;-64
2022/04/08 04:30:08;;;;;;;5.82;1.50;;;;;;;5.12;67.65;95263.94;2066464;28;20193;-63
2022/04/08 04:31:09;;;;;;;7.25;1.77;;;;;;;5.05;68.08;95260.91;2070343;28;20202;-63
2022/04/08 04:32:11;;;;;;;7.57;1.42;;;;;;;5.06;67.99;95251.38;2066569;28;20206;-64
2022/04/08 04:33:12;;;;;;;16.73;1.80;;;;;;;5.07;68.30;95263.41;2068876;28;20201;-63
2022/04/08 04:34:14;;;;;;;7.78;1.30;;;;;;;5.07;68.18;95258.22;2069588;28;20608;-63
2022/04/08 04:35:16;;;;;;;18.95;1.90;;;;;;;5.10;68.57;95261.44;2068243;28;20225;-63
2022/04/08 04:36:18;;;;;;;9.63;1.70;;;;;;;5.11;68.60;95264.84;2077494;28;20216;-63
2022/04/08 04:37:19;;;;;;;14.45;1.60;;;;;;;5.09;68.80;95257.16;2073441;28;20285;-63
2022/04/08 04:38:22;;;;;;;10.38;1.33;;;;;;;5.05;69.35;95247.94;2069125;28;20649;-63
2022/04/08 04:39:23;;;;;;;5.85;1.90;;;;;;;4.82;68.97;95213.19;2069835;28;20848;-63
2022/04/08 04:40:25;;;;;;;6.70;2.10;;;;;;;5.05;68.54;95255.72;2067246;28;20233;-64
2022/04/08 04:41:27;;;;;;;11.70;1.45;;;;;;;5.09;68.86;95264.13;2066598;28;20427;-64
2022/04/08 04:42:28;;;;;;;7.53;1.58;;;;;;;5.09;68.86;95267.56;2068242;28;20190;-63
2022/04/08 04:43:30;;;;;;;7.95;1.70;;;;;;;5.09;68.76;95266.72;2077435;28;20285;-63
2022/04/08 04:44:31;;;;;;;7.00;1.73;;;;;;;5.06;69.17;95262.59;2079286;28;20196;-64
2022/04/08 04:45:34;;;;;;;10.25;1.33;;;;;;;4.94;69.05;95243.50;2078150;28;20683;-63
2022/04/08 04:46:36;;;;;;;6.55;1.30;;;;;;;5.04;68.96;95258.44;2068448;28;20200;-63
2022/04/08 04:47:38;;;;;;;6.05;1.25;;;;;;;5.07;69.38;95264.22;2067475;28;20228;-64
2022/04/08 04:48:39;;;;;;;6.00;1.42;;;;;;;5.07;69.78;95260.81;2069597;28;20201;-63
2022/04/08 04:49:41;;;;;;;8.93;1.60;;;;;;;5.10;69.30;95261.44;2069767;28;20201;-64
2022/04/08 04:50:42;;;;;;;15.90;2.13;;;;;;;5.08;69.69;95255.53;2068145;28;20218;-63
2022/04/08 04:51:43;;;;;;;7.70;1.42;;;;;;;5.07;70.13;95264.22;2067829;28;20201;-64
2022/04/08 04:52:45;;;;;;;5.90;1.65;;;;;;;5.06;69.92;95270.38;2067934;28;20213;-64
2022/04/08 04:53:46;;;;;;;6.00;1.50;;;;;;;5.18;68.20;95266.09;2075094;28;20201;-63